createdAt,value
2019-03-18T00:00:31.332Z,54.00
2019-03-18T00:01:26.032Z,53.80
2019-03-18T00:02:20.741Z,54.10
2019-03-18T00:03:15.391Z,52.40
2019-03-18T00:04:10.552Z,53.00
2019-03-18T00:05:05.919Z,54.40
2019-03-18T00:06:01.567Z,52.70
2019-03-18T00:06:56.578Z,52.90
2019-03-18T00:07:51.421Z,52.40
2019-03-18T00:08:46.647Z,53.10
2019-03-18T00:09:42.561Z,53.80
2019-03-18T00:10:37.777Z,52.40
2019-03-18T00:11:32.909Z,52.40
2019-03-18T00:12:27.481Z,53.30
2019-03-18T00:13:22.813Z,53.20
2019-03-18T00:14:17.367Z,53.60
2019-03-18T00:15:13.573Z,53.80
2019-03-18T00:16:08.885Z,53.70
2019-03-18T00:17:04.159Z,53.90
2019-03-18T00:17:59.159Z,54.50
2019-03-18T00:18:54.068Z,53.00
2019-03-18T00:19:48.638Z,54.00
2019-03-18T00:20:43.637Z,54.40
2019-03-18T00:21:38.879Z,53.50
2019-03-18T00:22:33.951Z,54.70
2019-03-18T00:23:28.677Z,53.20
2019-03-18T00:24:23.939Z,54.40
2019-03-18T00:25:18.657Z,52.00
2019-03-18T00:26:14.064Z,53.00
2019-03-18T00:27:08.745Z,53.70
2019-03-18T00:28:03.954Z,53.90
2019-03-18T00:28:59.055Z,54.20
2019-03-18T00:29:53.681Z,54.30
2019-03-18T00:30:48.768Z,53.60
2019-03-18T00:31:43.614Z,54.00
2019-03-18T00:32:38.705Z,54.20
2019-03-18T00:33:33.663Z,54.10
2019-03-18T00:34:28.591Z,53.50
2019-03-18T00:35:23.156Z,54.00
2019-03-18T00:36:17.717Z,53.60
2019-03-18T00:37:13.996Z,53.50
2019-03-18T00:38:09.323Z,53.00
2019-03-18T00:39:07.073Z,52.90
2019-03-18T00:40:01.945Z,53.90
2019-03-18T00:40:56.880Z,53.00
2019-03-18T00:41:51.732Z,53.40
2019-03-18T00:42:46.958Z,52.90
2019-03-18T00:43:41.692Z,53.50
2019-03-18T00:44:36.620Z,53.80
2019-03-18T00:45:31.877Z,53.50
2019-03-18T00:46:26.356Z,53.80
2019-03-18T00:47:21.041Z,53.80
2019-03-18T00:48:15.568Z,54.00
2019-03-18T00:49:10.807Z,53.90
2019-03-18T00:50:08.613Z,53.60
2019-03-18T00:51:03.759Z,54.20
2019-03-18T00:51:58.610Z,53.80
2019-03-18T00:52:53.696Z,54.00
2019-03-18T00:53:49.767Z,53.10
2019-03-18T00:54:44.870Z,53.80
2019-03-18T00:55:39.675Z,53.30
2019-03-18T00:56:34.543Z,53.40
2019-03-18T00:57:29.676Z,52.50
2019-03-18T00:58:24.720Z,53.30
2019-03-18T00:59:19.888Z,53.70
2019-03-18T01:00:17.317Z,53.70
2019-03-18T01:01:12.027Z,53.80
2019-03-18T01:02:07.243Z,53.70
2019-03-18T01:03:02.164Z,53.60
2019-03-18T01:03:57.014Z,53.60
2019-03-18T01:04:51.877Z,53.90
2019-03-18T01:05:47.052Z,53.40
2019-03-18T01:06:42.012Z,53.30
2019-03-18T01:07:37.172Z,53.10
2019-03-18T01:08:31.739Z,53.60
2019-03-18T01:09:26.374Z,52.90
2019-03-18T01:10:21.004Z,54.40
2019-03-18T01:11:15.596Z,52.60
2019-03-18T01:12:10.726Z,53.30
2019-03-18T01:13:05.883Z,52.80
2019-03-18T01:14:00.728Z,53.30
2019-03-18T01:14:55.806Z,53.10
2019-03-18T01:15:51.020Z,53.30
2019-03-18T01:16:46.125Z,53.50
2019-03-18T01:17:41.131Z,53.30
2019-03-18T01:18:36.068Z,53.70
2019-03-18T01:19:30.695Z,53.80
2019-03-18T01:20:25.838Z,53.40
2019-03-18T01:21:20.416Z,53.60
2019-03-18T01:22:15.004Z,53.40
2019-03-18T01:23:10.082Z,53.40
2019-03-18T01:24:05.368Z,53.60
2019-03-18T01:25:00.372Z,53.70
2019-03-18T01:25:55.928Z,52.40
2019-03-18T01:26:51.017Z,53.20
2019-03-18T01:27:46.094Z,53.70
2019-03-18T01:28:41.147Z,54.60
2019-03-18T01:29:36.088Z,53.40
2019-03-18T01:30:30.750Z,53.70
2019-03-18T01:31:25.881Z,53.40
2019-03-18T01:32:20.516Z,53.60
2019-03-18T01:33:15.129Z,53.10
2019-03-18T01:34:10.264Z,53.50
2019-03-18T01:35:07.173Z,53.30
2019-03-18T01:36:02.024Z,53.50
2019-03-18T01:36:58.466Z,53.40
2019-03-18T01:37:53.442Z,53.40
2019-03-18T01:38:48.533Z,53.90
2019-03-18T01:39:43.035Z,53.90
2019-03-18T01:40:37.921Z,53.20
2019-03-18T01:41:32.784Z,53.00
2019-03-18T01:42:27.941Z,53.60
2019-03-18T01:43:22.998Z,53.50
2019-03-18T01:44:18.255Z,53.50
2019-03-18T01:45:13.980Z,53.40
2019-03-18T01:46:09.121Z,53.20
2019-03-18T01:47:04.260Z,53.40
2019-03-18T01:47:59.335Z,54.40
2019-03-18T01:48:54.020Z,53.60
2019-03-18T01:49:48.986Z,53.20
2019-03-18T01:50:44.002Z,53.10
2019-03-18T01:51:39.161Z,53.90
2019-03-18T01:52:34.032Z,53.80
2019-03-18T01:53:29.106Z,53.30
2019-03-18T01:54:23.711Z,53.40
2019-03-18T01:55:18.313Z,53.30
2019-03-18T01:56:14.521Z,53.50
2019-03-18T01:57:09.093Z,53.40
2019-03-18T01:58:04.329Z,53.50
2019-03-18T01:59:00.241Z,53.20
2019-03-18T01:59:55.042Z,53.00
2019-03-18T02:00:50.215Z,53.40
2019-03-18T02:01:45.113Z,53.00
2019-03-18T02:02:39.965Z,53.20
2019-03-18T02:03:35.117Z,53.20
2019-03-18T02:04:29.764Z,53.60
2019-03-18T02:05:24.257Z,53.20
2019-03-18T02:06:18.847Z,53.10
2019-03-18T02:07:14.167Z,53.10
2019-03-18T02:08:09.312Z,52.90
2019-03-18T02:09:06.333Z,52.90
2019-03-18T02:10:01.193Z,52.60
2019-03-18T02:10:56.122Z,52.30
2019-03-18T02:11:51.068Z,52.60
2019-03-18T02:12:46.277Z,52.50
2019-03-18T02:13:41.041Z,52.60
2019-03-18T02:14:36.108Z,52.50
2019-03-18T02:15:30.989Z,52.50
2019-03-18T02:16:25.571Z,51.50
2019-03-18T02:17:20.281Z,52.70
2019-03-18T02:18:14.792Z,52.50
2019-03-18T02:19:10.435Z,52.40
2019-03-18T02:20:09.016Z,52.20
2019-03-18T02:21:04.222Z,52.20
2019-03-18T02:21:59.155Z,51.70
2019-03-18T02:22:54.335Z,52.60
2019-03-18T02:23:49.110Z,52.90
2019-03-18T02:24:43.961Z,52.50
2019-03-18T02:25:39.197Z,52.20
2019-03-18T02:26:34.117Z,52.10
2019-03-18T02:27:29.225Z,53.10
2019-03-18T02:28:23.870Z,52.30
2019-03-18T02:29:18.427Z,52.50
2019-03-18T02:30:16.097Z,52.70
2019-03-18T02:31:10.716Z,52.80
2019-03-18T02:32:05.929Z,52.50
2019-03-18T02:33:01.138Z,52.60
2019-03-18T02:33:56.076Z,52.80
2019-03-18T02:34:51.229Z,53.00
2019-03-18T02:35:46.205Z,52.40
2019-03-18T02:36:41.270Z,52.30
2019-03-18T02:37:36.227Z,52.40
2019-03-18T02:38:31.319Z,53.00
2019-03-18T02:39:25.991Z,52.80
2019-03-18T02:40:20.613Z,52.80
2019-03-18T02:41:15.254Z,52.70
2019-03-18T02:42:10.552Z,52.50
2019-03-18T02:43:05.735Z,51.90
2019-03-18T02:44:01.157Z,52.50
2019-03-18T02:44:56.175Z,51.40
2019-03-18T02:45:51.035Z,51.70
2019-03-18T02:46:46.036Z,52.20
2019-03-18T02:47:41.124Z,52.50
2019-03-18T02:48:36.228Z,52.40
2019-03-18T02:49:30.869Z,53.10
2019-03-18T02:50:25.475Z,52.70
2019-03-18T02:51:20.055Z,52.20
2019-03-18T02:52:14.789Z,52.20
2019-03-18T02:53:09.981Z,52.60
2019-03-18T02:54:05.213Z,52.20
2019-03-18T02:55:00.143Z,52.90
2019-03-18T02:55:55.169Z,52.60
2019-03-18T02:56:50.252Z,52.00
2019-03-18T02:57:46.232Z,52.70
2019-03-18T02:58:41.090Z,52.70
2019-03-18T02:59:37.304Z,52.90
2019-03-18T03:00:31.886Z,51.90
2019-03-18T03:01:26.547Z,53.00
2019-03-18T03:02:21.217Z,52.70
2019-03-18T03:03:16.425Z,53.20
2019-03-18T03:04:10.979Z,52.80
2019-03-18T03:05:07.974Z,52.90
2019-03-18T03:06:03.184Z,53.10
2019-03-18T03:06:58.288Z,52.90
2019-03-18T03:07:53.396Z,52.70
2019-03-18T03:08:48.495Z,52.80
2019-03-18T03:09:43.413Z,52.90
2019-03-18T03:10:38.670Z,52.80
2019-03-18T03:11:34.460Z,52.40
2019-03-18T03:12:30.266Z,53.00
2019-03-18T03:13:25.322Z,52.70
2019-03-18T03:14:20.279Z,52.80
2019-03-18T03:15:15.200Z,52.30
2019-03-18T03:16:20.403Z,52.40
2019-03-18T03:17:06.945Z,53.00
2019-03-18T03:18:02.127Z,53.40
2019-03-18T03:18:57.333Z,53.00
2019-03-18T03:19:52.481Z,53.10
2019-03-18T03:20:47.406Z,52.80
2019-03-18T03:21:42.252Z,53.10
2019-03-18T03:22:37.108Z,52.80
2019-03-18T03:23:32.325Z,53.00
2019-03-18T03:24:27.495Z,53.10
2019-03-18T03:25:24.889Z,53.00
2019-03-18T03:26:18.240Z,53.20
2019-03-18T03:27:14.316Z,52.70
2019-03-18T03:28:09.458Z,52.80
2019-03-18T03:29:05.769Z,52.70
2019-03-18T03:30:00.677Z,52.60
2019-03-18T03:30:55.971Z,52.90
2019-03-18T03:31:50.524Z,52.70
2019-03-18T03:32:45.585Z,52.50
2019-03-18T03:33:40.515Z,52.30
2019-03-18T03:34:35.363Z,52.40
2019-03-18T03:35:30.413Z,52.30
2019-03-18T03:36:25.329Z,52.20
2019-03-18T03:37:20.351Z,52.20
2019-03-18T03:38:15.087Z,52.30
2019-03-18T03:39:10.211Z,52.10
2019-03-18T03:40:12.305Z,52.20
2019-03-18T03:41:07.489Z,51.90
2019-03-18T03:42:02.498Z,51.80
2019-03-18T03:42:57.342Z,52.20
2019-03-18T03:43:52.450Z,52.30
2019-03-18T03:44:47.529Z,52.20
2019-03-18T03:45:42.490Z,52.10
2019-03-18T03:46:43.599Z,52.10
2019-03-18T03:47:34.051Z,52.00
2019-03-18T03:48:28.617Z,52.10
2019-03-18T03:49:23.233Z,52.30
2019-03-18T03:50:19.928Z,52.30
2019-03-18T03:51:14.642Z,52.20
2019-03-18T03:52:09.847Z,52.20
2019-03-18T03:53:05.063Z,52.20
2019-03-18T03:54:00.495Z,52.30
2019-03-18T03:54:55.566Z,52.50
2019-03-18T03:55:50.991Z,52.40
2019-03-18T03:56:46.034Z,52.20
2019-03-18T03:57:41.619Z,52.30
2019-03-18T03:58:36.805Z,52.10
2019-03-18T03:59:31.553Z,52.40
2019-03-18T04:00:26.272Z,52.30
2019-03-18T04:01:21.869Z,51.80
2019-03-18T04:02:16.537Z,52.00
2019-03-18T04:03:11.735Z,52.40
2019-03-18T04:04:07.026Z,52.40
2019-03-18T04:05:02.252Z,52.60
2019-03-18T04:05:56.898Z,51.80
2019-03-18T04:06:51.902Z,52.80
2019-03-18T04:07:47.086Z,52.20
2019-03-18T04:08:41.711Z,52.20
2019-03-18T04:09:36.717Z,52.50
2019-03-18T04:10:31.286Z,52.30
2019-03-18T04:11:25.791Z,52.20
2019-03-18T04:12:20.424Z,51.70
2019-03-18T04:13:15.594Z,52.10
2019-03-18T04:14:10.870Z,52.10
2019-03-18T04:15:13.730Z,52.30
2019-03-18T04:16:09.612Z,52.50
2019-03-18T04:17:04.762Z,52.60
2019-03-18T04:17:59.702Z,52.30
2019-03-18T04:18:54.580Z,52.90
2019-03-18T04:19:49.439Z,52.60
2019-03-18T04:20:44.714Z,52.10
2019-03-18T04:21:39.719Z,52.40
2019-03-18T04:22:34.803Z,52.00
2019-03-18T04:23:29.369Z,52.20
2019-03-18T04:24:23.985Z,51.90
2019-03-18T04:25:18.607Z,52.40
2019-03-18T04:26:13.992Z,53.30
2019-03-18T04:27:08.537Z,52.30
2019-03-18T04:28:03.751Z,52.40
2019-03-18T04:28:58.832Z,52.60
2019-03-18T04:29:53.599Z,52.20
2019-03-18T04:30:48.450Z,52.10
2019-03-18T04:31:43.671Z,52.70
2019-03-18T04:32:38.518Z,52.10
2019-03-18T04:33:33.744Z,52.40
2019-03-18T04:34:28.302Z,52.30
2019-03-18T04:35:23.467Z,52.20
2019-03-18T04:36:18.764Z,52.50
2019-03-18T04:37:13.975Z,52.70
2019-03-18T04:38:09.184Z,52.30
2019-03-18T04:39:05.757Z,52.60
2019-03-18T04:40:00.613Z,52.40
2019-03-18T04:40:55.489Z,52.10
2019-03-18T04:41:50.629Z,52.40
2019-03-18T04:42:46.748Z,52.30
2019-03-18T04:43:41.643Z,52.20
2019-03-18T04:44:36.497Z,51.80
2019-03-18T04:45:31.635Z,52.00
2019-03-18T04:46:26.659Z,52.20
2019-03-18T04:47:21.274Z,51.80
2019-03-18T04:48:15.783Z,52.00
2019-03-18T04:49:10.918Z,51.50
2019-03-18T04:50:09.236Z,51.90
2019-03-18T04:51:04.560Z,51.50
2019-03-18T04:51:59.735Z,51.80
2019-03-18T04:52:54.759Z,51.50
2019-03-18T04:53:49.648Z,52.10
2019-03-18T04:54:44.581Z,52.30
2019-03-18T04:55:39.803Z,51.90
2019-03-18T04:56:34.609Z,52.40
2019-03-18T04:57:29.787Z,52.40
2019-03-18T04:58:24.383Z,51.80
2019-03-18T04:59:19.538Z,52.50
2019-03-18T05:00:15.182Z,52.40
2019-03-18T05:01:09.819Z,52.10
2019-03-18T05:02:05.029Z,52.40
2019-03-18T05:02:59.944Z,52.20
2019-03-18T05:03:54.790Z,52.00
2019-03-18T05:04:49.589Z,52.30
2019-03-18T05:05:44.804Z,52.40
2019-03-18T05:06:39.883Z,52.30
2019-03-18T05:07:34.848Z,52.30
2019-03-18T05:08:29.639Z,52.40
2019-03-18T05:09:24.810Z,52.30
2019-03-18T05:10:19.768Z,51.50
2019-03-18T05:11:14.434Z,52.30
2019-03-18T05:12:09.583Z,52.70
2019-03-18T05:13:05.703Z,52.20
2019-03-18T05:14:00.642Z,52.20
2019-03-18T05:14:55.792Z,52.30
2019-03-18T05:15:50.721Z,52.00
2019-03-18T05:16:45.790Z,52.10
2019-03-18T05:17:40.854Z,51.50
2019-03-18T05:18:36.669Z,52.00
2019-03-18T05:19:31.814Z,52.20
2019-03-18T05:20:26.862Z,52.10
2019-03-18T05:21:21.752Z,52.50
2019-03-18T05:22:16.842Z,52.40
2019-03-18T05:23:12.053Z,52.40
2019-03-18T05:24:07.116Z,52.30
2019-03-18T05:25:01.999Z,52.00
2019-03-18T05:25:56.890Z,51.80
2019-03-18T05:26:52.086Z,51.50
2019-03-18T05:27:47.000Z,51.90
2019-03-18T05:28:41.850Z,52.20
2019-03-18T05:29:36.351Z,52.10
2019-03-18T05:30:30.956Z,52.10
2019-03-18T05:31:25.598Z,52.00
2019-03-18T05:32:20.223Z,52.10
2019-03-18T05:33:14.870Z,51.90
2019-03-18T05:34:10.092Z,51.80
2019-03-18T05:35:06.197Z,51.90
2019-03-18T05:36:00.868Z,51.70
2019-03-18T05:36:55.722Z,51.70
2019-03-18T05:37:50.858Z,51.80
2019-03-18T05:38:45.722Z,51.50
2019-03-18T05:39:40.860Z,51.50
2019-03-18T05:40:35.725Z,51.40
2019-03-18T05:41:30.315Z,51.20
2019-03-18T05:42:24.873Z,51.20
2019-03-18T05:43:19.529Z,51.40
2019-03-18T05:44:14.172Z,51.50
2019-03-18T05:45:10.752Z,51.20
2019-03-18T05:46:05.959Z,51.20
2019-03-18T05:47:01.086Z,51.20
2019-03-18T05:47:55.918Z,51.00
2019-03-18T05:48:50.770Z,51.10
2019-03-18T05:49:46.376Z,51.00
2019-03-18T05:50:41.251Z,51.20
2019-03-18T05:51:36.088Z,51.40
2019-03-18T05:52:30.776Z,51.00
2019-03-18T05:53:25.924Z,51.20
2019-03-18T05:54:20.905Z,50.90
2019-03-18T05:55:15.455Z,51.20
2019-03-18T05:56:10.599Z,51.10
2019-03-18T05:57:05.821Z,50.90
2019-03-18T05:58:01.002Z,50.90
2019-03-18T05:58:55.882Z,50.80
2019-03-18T05:59:50.729Z,50.50
2019-03-18T06:00:45.654Z,50.50
2019-03-18T06:01:40.532Z,50.60
2019-03-18T06:02:35.315Z,50.90
2019-03-18T06:03:29.997Z,50.80
2019-03-18T06:04:24.574Z,50.90
2019-03-18T06:05:19.208Z,50.60
2019-03-18T06:06:33.902Z,50.60
2019-03-18T06:07:28.499Z,50.60
2019-03-18T06:08:23.063Z,50.70
2019-03-18T06:09:18.403Z,50.40
2019-03-18T06:10:14.198Z,50.40
2019-03-18T06:11:10.770Z,50.30
2019-03-18T06:12:06.045Z,50.40
2019-03-18T06:13:01.260Z,50.10
2019-03-18T06:13:56.668Z,50.20
2019-03-18T06:14:52.132Z,50.00
2019-03-18T06:15:46.695Z,50.20
2019-03-18T06:16:41.783Z,50.30
2019-03-18T06:17:36.427Z,50.30
2019-03-18T06:18:31.147Z,50.00
2019-03-18T06:19:26.347Z,50.00
2019-03-18T06:20:21.012Z,50.40
2019-03-18T06:21:16.355Z,50.30
2019-03-18T06:22:11.455Z,50.10
2019-03-18T06:23:06.597Z,50.10
2019-03-18T06:24:01.689Z,50.00
2019-03-18T06:24:56.249Z,50.10
2019-03-18T06:25:51.215Z,49.80
2019-03-18T06:26:46.161Z,49.20
2019-03-18T06:27:41.313Z,50.10
2019-03-18T06:28:36.215Z,50.20
2019-03-18T06:29:32.421Z,50.10
2019-03-18T06:30:26.991Z,49.90
2019-03-18T06:31:22.163Z,50.30
2019-03-18T06:32:17.348Z,50.30
2019-03-18T06:33:13.411Z,50.70
2019-03-18T06:34:08.622Z,50.80
2019-03-18T06:35:03.595Z,50.80
2019-03-18T06:35:58.751Z,50.50
2019-03-18T06:36:53.373Z,50.50
2019-03-18T06:37:48.419Z,50.60
2019-03-18T06:38:43.385Z,50.20
2019-03-18T06:39:39.220Z,50.30
2019-03-18T06:40:34.080Z,49.80
2019-03-18T06:41:28.809Z,50.40
2019-03-18T06:42:23.390Z,50.20
2019-03-18T06:43:17.959Z,49.90
2019-03-18T06:44:14.023Z,49.90
2019-03-18T06:45:11.170Z,49.90
2019-03-18T06:46:06.305Z,49.50
2019-03-18T06:47:01.179Z,49.80
2019-03-18T06:48:04.848Z,50.00
2019-03-18T06:48:53.172Z,49.90
2019-03-18T06:49:48.259Z,49.10
2019-03-18T06:50:43.405Z,49.60
2019-03-18T06:51:38.257Z,49.30
2019-03-18T06:52:33.197Z,49.40
2019-03-18T06:53:28.424Z,49.70
2019-03-18T06:54:22.993Z,49.30
2019-03-18T06:55:18.167Z,49.50
2019-03-18T06:56:14.359Z,49.10
2019-03-18T06:57:09.569Z,49.60
2019-03-18T06:58:04.872Z,49.20
2019-03-18T06:59:00.043Z,49.50
2019-03-18T06:59:54.679Z,49.00
2019-03-18T07:00:49.619Z,49.10
2019-03-18T07:01:44.839Z,49.00
2019-03-18T07:02:39.914Z,48.80
2019-03-18T07:03:34.874Z,48.40
2019-03-18T07:04:29.525Z,47.60
2019-03-18T07:05:24.165Z,47.80
2019-03-18T07:06:18.748Z,47.20
2019-03-18T07:07:13.929Z,47.00
2019-03-18T07:08:08.997Z,47.30
2019-03-18T07:09:05.680Z,47.70
2019-03-18T07:10:00.779Z,47.60
2019-03-18T07:10:55.787Z,47.50
2019-03-18T07:11:50.658Z,47.50
2019-03-18T07:12:45.798Z,47.50
2019-03-18T07:13:40.878Z,47.60
2019-03-18T07:14:35.868Z,47.30
2019-03-18T07:15:30.610Z,47.20
2019-03-18T07:16:25.824Z,47.20
2019-03-18T07:17:20.874Z,47.40
2019-03-18T07:18:18.632Z,47.50
2019-03-18T07:19:13.226Z,47.50
2019-03-18T07:20:10.920Z,47.50
2019-03-18T07:21:06.228Z,47.50
2019-03-18T07:22:02.164Z,47.20
2019-03-18T07:22:57.088Z,47.20
2019-03-18T07:23:52.251Z,46.80
2019-03-18T07:24:46.923Z,47.20
2019-03-18T07:25:42.090Z,47.20
2019-03-18T07:26:36.960Z,47.10
2019-03-18T07:27:31.536Z,47.10
2019-03-18T07:28:26.119Z,47.10
2019-03-18T07:29:20.684Z,47.10
2019-03-18T07:30:15.968Z,47.10
2019-03-18T07:31:11.116Z,46.50
2019-03-18T07:32:06.326Z,46.50
2019-03-18T07:33:01.388Z,47.00
2019-03-18T07:33:56.114Z,46.70
2019-03-18T07:34:51.264Z,46.80
2019-03-18T07:35:45.987Z,46.80
2019-03-18T07:36:40.890Z,46.80
2019-03-18T07:37:36.084Z,46.80
2019-03-18T07:38:30.731Z,47.00
2019-03-18T07:39:25.914Z,47.40
2019-03-18T07:40:20.557Z,47.00
2019-03-18T07:41:15.719Z,47.10
2019-03-18T07:42:11.012Z,46.80
2019-03-18T07:43:06.250Z,46.80
2019-03-18T07:44:01.038Z,47.00
2019-03-18T07:44:56.192Z,46.50
2019-03-18T07:45:50.810Z,46.60
2019-03-18T07:46:46.023Z,46.60
2019-03-18T07:47:40.873Z,46.60
2019-03-18T07:48:35.822Z,46.80
2019-03-18T07:49:30.724Z,46.70
2019-03-18T07:50:26.080Z,46.60
2019-03-18T07:51:20.644Z,46.40
2019-03-18T07:52:17.088Z,46.20
2019-03-18T07:53:11.719Z,45.90
2019-03-18T07:54:06.958Z,46.00
2019-03-18T07:55:02.042Z,45.60
2019-03-18T07:55:56.842Z,45.30
2019-03-18T07:56:51.982Z,45.10
2019-03-18T07:57:46.820Z,45.00
2019-03-18T07:59:45.682Z,45.00
2019-03-18T08:00:40.916Z,45.70
2019-03-18T08:01:35.499Z,45.00
2019-03-18T08:02:30.208Z,45.00
2019-03-18T08:03:25.806Z,44.50
2019-03-18T08:04:20.375Z,45.00
2019-03-18T08:05:15.038Z,45.20
2019-03-18T08:06:10.326Z,45.10
2019-03-18T08:07:05.467Z,44.50
2019-03-18T08:08:00.308Z,44.20
2019-03-18T08:08:55.235Z,43.70
2019-03-18T08:09:50.309Z,43.30
2019-03-18T08:10:45.143Z,42.60
2019-03-18T08:11:40.227Z,42.10
2019-03-18T08:12:35.096Z,42.00
2019-03-18T08:13:30.253Z,41.70
2019-03-18T08:14:25.806Z,41.80
2019-03-18T08:15:20.364Z,41.50
2019-03-18T08:16:14.881Z,41.20
2019-03-18T08:17:10.014Z,40.90
2019-03-18T08:18:06.131Z,40.50
2019-03-18T08:19:01.053Z,40.50
2019-03-18T08:19:56.319Z,40.40
2019-03-18T08:20:51.267Z,41.30
2019-03-18T08:21:47.283Z,40.80
2019-03-18T08:22:42.156Z,40.50
2019-03-18T08:23:37.231Z,40.10
2019-03-18T08:24:31.914Z,39.50
2019-03-18T08:25:26.469Z,39.20
2019-03-18T08:26:20.962Z,38.80
2019-03-18T08:27:16.211Z,38.60
2019-03-18T08:28:11.347Z,38.40
2019-03-18T08:29:06.202Z,38.10
2019-03-18T08:30:01.298Z,38.00
2019-03-18T08:30:56.402Z,37.70
2019-03-18T08:31:51.363Z,37.60
2019-03-18T08:32:46.482Z,37.40
2019-03-18T08:33:41.433Z,37.00
2019-03-18T08:34:36.369Z,36.30
2019-03-18T08:35:30.959Z,36.00
2019-03-18T08:36:26.102Z,36.10
2019-03-18T08:37:21.167Z,35.60
2019-03-18T08:39:13.043Z,35.00
2019-03-18T08:40:11.836Z,34.40
2019-03-18T08:41:07.899Z,33.70
2019-03-18T08:42:02.483Z,33.80
2019-03-18T08:42:57.340Z,33.50
2019-03-18T08:44:40.504Z,33.20
2019-03-18T08:45:35.780Z,33.30
2019-03-18T08:46:30.351Z,33.30
2019-03-18T08:47:24.929Z,33.20
2019-03-18T08:48:20.089Z,33.50
2019-03-18T08:49:14.762Z,33.20
2019-03-18T08:50:12.433Z,33.00
2019-03-18T08:51:07.909Z,32.80
2019-03-18T08:52:03.280Z,32.70
2019-03-18T08:52:58.397Z,32.40
2019-03-18T08:53:53.406Z,33.10
2019-03-18T08:54:48.406Z,34.10
2019-03-18T08:55:43.439Z,35.60
2019-03-18T08:56:38.443Z,34.60
2019-03-18T08:57:33.409Z,34.20
2019-03-18T08:58:27.979Z,33.60
2019-03-18T08:59:22.850Z,33.10
2019-03-18T09:00:18.395Z,32.60
2019-03-18T09:01:14.068Z,32.30
2019-03-18T09:02:09.264Z,31.90
2019-03-18T09:03:04.485Z,31.90
2019-03-18T09:03:59.341Z,31.50
2019-03-18T09:04:54.447Z,31.30
2019-03-18T09:05:49.508Z,31.10
2019-03-18T09:06:44.553Z,31.00
2019-03-18T09:07:39.673Z,31.40
2019-03-18T09:08:34.288Z,31.90
2019-03-18T09:09:29.223Z,32.20
2019-03-18T09:10:24.482Z,31.70
2019-03-18T09:11:19.048Z,31.40
2019-03-18T09:12:14.846Z,30.80
2019-03-18T09:13:10.374Z,30.50
2019-03-18T09:14:05.186Z,30.40
2019-03-18T09:14:59.724Z,30.30
2019-03-18T09:15:54.558Z,31.20
2019-03-18T09:16:49.542Z,31.90
2019-03-18T09:17:45.572Z,32.90
2019-03-18T09:18:40.535Z,33.90
2019-03-18T09:19:35.553Z,34.60
2019-03-18T09:20:31.111Z,33.90
2019-03-18T09:21:26.241Z,32.80
2019-03-18T09:22:21.619Z,33.20
2019-03-18T09:23:16.273Z,34.10
2019-03-18T09:24:11.486Z,33.70
2019-03-18T09:25:08.672Z,34.40
2019-03-18T09:26:03.526Z,35.10
2019-03-18T09:27:02.714Z,35.80
2019-03-18T09:27:55.371Z,36.50
2019-03-18T09:28:50.661Z,36.90
2019-03-18T09:29:45.636Z,37.30
2019-03-18T09:30:40.626Z,37.50
2019-03-18T09:31:35.551Z,37.50
2019-03-18T09:32:30.118Z,37.70
2019-03-18T09:33:24.692Z,38.00
2019-03-18T09:34:19.281Z,38.20
2019-03-18T09:35:14.730Z,38.50
2019-03-18T09:36:09.355Z,38.80
2019-03-18T09:37:04.650Z,38.90
2019-03-18T09:37:59.786Z,38.80
2019-03-18T09:38:54.872Z,38.60
2019-03-18T09:39:49.445Z,38.40
2019-03-18T09:40:44.352Z,38.50
2019-03-18T09:41:39.583Z,38.30
2019-03-18T09:42:34.584Z,38.00
2019-03-18T09:43:29.195Z,38.00
2019-03-18T09:44:24.316Z,37.70
2019-03-18T09:45:20.027Z,37.20
2019-03-18T09:46:14.599Z,36.70
2019-03-18T09:47:09.871Z,36.60
2019-03-18T09:48:05.158Z,36.40
2019-03-18T09:49:00.302Z,36.10
2019-03-18T09:49:55.390Z,36.70
2019-03-18T09:50:49.998Z,37.20
2019-03-18T09:51:44.954Z,37.90
2019-03-18T09:52:40.092Z,38.40
2019-03-18T09:53:37.488Z,38.90
2019-03-18T09:54:30.934Z,39.40
2019-03-18T09:55:25.652Z,39.50
2019-03-18T09:56:20.387Z,39.70
2019-03-18T09:57:25.339Z,38.80
2019-03-18T09:58:11.824Z,39.20
2019-03-18T09:59:07.036Z,38.50
2019-03-18T10:00:02.272Z,38.80
2019-03-18T10:00:57.335Z,39.00
2019-03-18T10:01:52.011Z,39.00
2019-03-18T10:02:47.968Z,39.10
2019-03-18T10:03:42.900Z,39.00
2019-03-18T10:04:38.243Z,39.30
2019-03-18T10:05:33.403Z,39.20
2019-03-18T10:06:28.027Z,39.00
2019-03-18T10:07:22.627Z,39.10
2019-03-18T10:08:17.287Z,39.00
2019-03-18T10:09:13.406Z,39.10
2019-03-18T10:10:15.090Z,39.00
2019-03-18T10:11:10.324Z,39.20
2019-03-18T10:12:05.598Z,39.30
2019-03-18T10:13:00.754Z,39.10
2019-03-18T10:13:55.767Z,38.80
2019-03-18T10:14:50.841Z,38.60
2019-03-18T10:15:45.546Z,39.30
2019-03-18T10:16:40.654Z,38.60
2019-03-18T10:17:35.615Z,38.30
2019-03-18T10:18:30.416Z,38.20
2019-03-18T10:19:33.549Z,38.20
2019-03-18T10:20:22.321Z,38.10
2019-03-18T10:21:17.547Z,38.20
2019-03-18T10:22:13.838Z,37.40
2019-03-18T10:23:08.411Z,35.10
2019-03-18T10:24:03.685Z,33.20
2019-03-18T10:24:58.764Z,31.60
2019-03-18T10:25:54.246Z,30.50
2019-03-18T10:26:49.141Z,29.80
2019-03-18T10:27:43.857Z,29.40
2019-03-18T10:28:38.770Z,29.10
2019-03-18T10:29:33.865Z,28.80
2019-03-18T10:30:28.499Z,28.60
2019-03-18T10:31:23.355Z,28.50
2019-03-18T10:32:18.067Z,28.30
2019-03-18T10:33:13.825Z,28.10
2019-03-18T10:34:08.973Z,28.10
2019-03-18T10:35:04.193Z,27.90
2019-03-18T10:35:59.490Z,27.90
2019-03-18T10:36:54.586Z,27.80
2019-03-18T10:37:49.925Z,27.90
2019-03-18T10:38:45.865Z,27.70
2019-03-18T10:39:40.782Z,28.50
2019-03-18T10:40:35.827Z,29.00
2019-03-18T10:41:30.455Z,28.90
2019-03-18T10:42:25.283Z,28.60
2019-03-18T10:43:19.858Z,28.30
2019-03-18T10:44:14.474Z,28.20
2019-03-18T10:45:11.672Z,28.10
2019-03-18T10:46:06.831Z,28.00
2019-03-18T10:47:02.952Z,28.00
2019-03-18T10:47:58.024Z,27.90
2019-03-18T10:48:52.688Z,27.80
2019-03-18T10:49:47.525Z,27.70
2019-03-18T10:50:43.571Z,28.40
2019-03-18T10:51:38.558Z,28.50
2019-03-18T10:52:33.793Z,28.40
2019-03-18T10:53:28.357Z,28.20
2019-03-18T10:54:30.730Z,28.40
2019-03-18T10:55:19.917Z,28.30
2019-03-18T10:56:14.665Z,28.10
2019-03-18T10:57:09.618Z,28.00
2019-03-18T10:58:04.760Z,27.90
2019-03-18T10:59:00.560Z,27.90
2019-03-18T10:59:56.642Z,28.30
2019-03-18T11:00:51.701Z,28.40
2019-03-18T11:01:47.026Z,28.30
2019-03-18T11:02:44.797Z,28.10
2019-03-18T11:03:39.662Z,28.70
2019-03-18T11:04:34.888Z,28.20
2019-03-18T11:05:29.764Z,28.10
2019-03-18T11:06:24.855Z,28.90
2019-03-18T11:07:19.852Z,30.40
2019-03-18T11:08:14.563Z,32.00
2019-03-18T11:09:09.715Z,32.10
2019-03-18T11:10:08.202Z,32.10
2019-03-18T11:11:03.073Z,33.20
2019-03-18T11:11:57.988Z,34.80
2019-03-18T11:12:52.859Z,35.10
2019-03-18T11:13:47.749Z,35.80
2019-03-18T11:14:42.989Z,36.80
2019-03-18T11:15:37.975Z,36.80
2019-03-18T11:16:32.902Z,37.20
2019-03-18T11:17:28.075Z,37.50
2019-03-18T11:18:22.645Z,37.80
2019-03-18T11:19:18.316Z,38.00
2019-03-18T11:20:15.107Z,38.10
2019-03-18T11:21:09.800Z,38.30
2019-03-18T11:22:05.032Z,38.40
2019-03-18T11:23:00.174Z,38.60
2019-03-18T11:23:55.256Z,38.70
2019-03-18T11:24:50.268Z,39.00
2019-03-18T11:25:45.121Z,39.00
2019-03-18T11:26:40.994Z,39.10
2019-03-18T11:27:35.912Z,39.30
2019-03-18T11:28:30.971Z,39.40
2019-03-18T11:29:26.029Z,39.40
2019-03-18T11:30:21.047Z,39.50
2019-03-18T11:31:15.764Z,39.60
2019-03-18T11:32:11.044Z,39.80
2019-03-18T11:33:06.321Z,39.80
2019-03-18T11:34:01.190Z,39.80
2019-03-18T11:34:56.344Z,40.30
2019-03-18T11:35:51.970Z,39.90
2019-03-18T11:36:47.171Z,39.70
2019-03-18T11:37:42.271Z,39.30
2019-03-18T11:38:36.853Z,39.20
2019-03-18T11:39:31.975Z,38.80
2019-03-18T11:40:26.740Z,38.80
2019-03-18T11:41:23.106Z,38.70
2019-03-18T11:42:17.688Z,38.50
2019-03-18T11:43:13.753Z,37.70
2019-03-18T11:44:08.986Z,36.80
2019-03-18T11:45:08.151Z,36.10
2019-03-18T11:46:03.560Z,36.30
2019-03-18T11:46:58.219Z,36.60
2019-03-18T11:47:53.439Z,36.80
2019-03-18T11:48:47.990Z,37.10
2019-03-18T11:49:43.018Z,37.50
2019-03-18T11:50:41.277Z,37.80
2019-03-18T11:51:35.158Z,38.30
2019-03-18T11:52:32.610Z,38.50
2019-03-18T11:53:26.165Z,38.70